createdAt,value
2018-06-10T00:00:39.745Z,0.00
2018-06-10T00:01:39.690Z,0.00
2018-06-10T00:02:39.635Z,0.00
2018-06-10T00:03:39.578Z,0.00
2018-06-10T00:04:39.521Z,0.00
2018-06-10T00:05:39.469Z,0.00
2018-06-10T00:06:39.415Z,0.00
2018-06-10T00:07:39.357Z,0.00
2018-06-10T00:08:39.299Z,0.00
2018-06-10T00:09:39.246Z,0.00
2018-06-10T00:10:39.190Z,0.00
2018-06-10T00:11:39.134Z,0.00
2018-06-10T00:12:39.078Z,0.00
2018-06-10T00:13:39.020Z,0.00
2018-06-10T00:14:38.965Z,0.00
2018-06-10T00:15:38.907Z,0.00
2018-06-10T00:16:38.857Z,0.00
2018-06-10T00:17:38.799Z,0.00
2018-06-10T00:18:38.745Z,0.00
2018-06-10T00:19:38.686Z,0.00
2018-06-10T00:20:38.632Z,0.00
2018-06-10T00:21:38.572Z,0.00
2018-06-10T00:22:38.521Z,0.00
2018-06-10T00:23:38.466Z,0.00
2018-06-10T00:24:38.411Z,0.00
2018-06-10T00:25:38.355Z,0.00
2018-06-10T00:26:38.295Z,0.00
2018-06-10T00:27:38.241Z,0.00
2018-06-10T00:28:38.188Z,0.00
2018-06-10T00:29:38.137Z,0.00
2018-06-10T00:30:38.073Z,0.00
2018-06-10T00:31:38.018Z,0.00
2018-06-10T00:32:37.960Z,0.00
2018-06-10T00:33:37.907Z,0.00
2018-06-10T00:34:37.847Z,0.00
2018-06-10T00:35:37.796Z,0.00
2018-06-10T00:36:37.736Z,0.00
2018-06-10T00:37:37.683Z,0.00
2018-06-10T00:38:37.623Z,0.00
2018-06-10T00:39:37.574Z,0.00
2018-06-10T00:40:37.513Z,0.00
2018-06-10T00:41:37.456Z,0.00
2018-06-10T00:42:37.403Z,0.00
2018-06-10T00:43:37.341Z,0.00
2018-06-10T00:44:37.286Z,0.00
2018-06-10T00:45:37.233Z,0.00
2018-06-10T00:46:37.177Z,0.00
2018-06-10T00:47:37.126Z,0.00
2018-06-10T00:48:37.066Z,0.00
2018-06-10T00:49:37.007Z,0.00
2018-06-10T00:50:36.948Z,0.00
2018-06-10T00:51:36.893Z,0.00
2018-06-10T00:52:36.837Z,0.00
2018-06-10T00:53:36.785Z,0.00
2018-06-10T00:54:36.730Z,0.00
2018-06-10T00:55:36.669Z,0.00
2018-06-10T00:56:36.613Z,0.00
2018-06-10T00:57:36.563Z,0.00
2018-06-10T00:58:36.500Z,0.00
2018-06-10T00:59:36.448Z,0.00
2018-06-10T01:00:36.390Z,0.00
2018-06-10T01:01:36.332Z,0.00
2018-06-10T01:02:36.276Z,0.00
2018-06-10T01:03:36.216Z,0.00
2018-06-10T01:04:36.163Z,0.00
2018-06-10T01:05:36.109Z,0.00
2018-06-10T01:06:36.055Z,0.00
2018-06-10T01:07:35.995Z,0.00
2018-06-10T01:08:35.942Z,0.00
2018-06-10T01:09:35.882Z,0.00
2018-06-10T01:10:35.825Z,0.00
2018-06-10T01:11:35.771Z,0.00
2018-06-10T01:12:35.719Z,0.00
2018-06-10T01:13:35.657Z,0.00
2018-06-10T01:14:35.615Z,0.00
2018-06-10T01:15:35.543Z,0.00
2018-06-10T01:16:35.487Z,0.00
2018-06-10T01:17:35.433Z,0.00
2018-06-10T01:18:35.376Z,0.00
2018-06-10T01:19:35.321Z,0.00
2018-06-10T01:20:35.264Z,0.00
2018-06-10T01:21:35.206Z,0.00
2018-06-10T01:22:35.152Z,0.00
2018-06-10T01:23:35.092Z,0.00
2018-06-10T01:24:35.036Z,0.00
2018-06-10T01:25:34.982Z,0.00
2018-06-10T01:26:34.924Z,0.00
2018-06-10T01:27:34.868Z,0.00
2018-06-10T01:28:34.811Z,0.00
2018-06-10T01:29:34.757Z,0.00
2018-06-10T01:30:34.697Z,0.00
2018-06-10T01:31:34.649Z,0.00
2018-06-10T01:32:34.587Z,0.00
2018-06-10T01:33:34.528Z,0.00
2018-06-10T01:34:34.473Z,0.00
2018-06-10T01:35:34.412Z,0.00
2018-06-10T01:36:34.361Z,0.00
2018-06-10T01:37:34.303Z,0.00
2018-06-10T01:38:34.244Z,0.00
2018-06-10T01:39:34.190Z,0.00
2018-06-10T01:40:34.134Z,0.00
2018-06-10T01:41:34.079Z,0.00
2018-06-10T01:42:34.016Z,0.00
2018-06-10T01:43:33.964Z,0.00
2018-06-10T01:44:33.908Z,0.00
2018-06-10T01:45:33.853Z,0.00
2018-06-10T01:46:33.794Z,0.00
2018-06-10T01:47:33.739Z,0.00
2018-06-10T01:48:33.680Z,0.00
2018-06-10T01:49:33.627Z,0.00
2018-06-10T01:50:33.574Z,0.00
2018-06-10T01:51:33.516Z,0.00
2018-06-10T01:52:33.455Z,0.00
2018-06-10T01:53:33.397Z,0.00
2018-06-10T01:54:33.339Z,0.00
2018-06-10T01:55:33.292Z,0.00
2018-06-10T01:56:33.226Z,0.00
2018-06-10T01:57:33.173Z,0.00
2018-06-10T01:58:33.112Z,0.00
2018-06-10T01:59:33.056Z,0.00
2018-06-10T02:00:32.999Z,0.00
2018-06-10T02:01:32.944Z,0.00
2018-06-10T02:02:32.888Z,0.00
2018-06-10T02:03:32.829Z,4.00
2018-06-10T02:04:32.774Z,4.00
2018-06-10T02:05:32.719Z,4.00
2018-06-10T02:06:32.661Z,4.00
2018-06-10T02:07:32.602Z,0.00
2018-06-10T02:08:32.546Z,4.00
2018-06-10T02:09:32.491Z,4.00
2018-06-10T02:10:32.434Z,4.00
2018-06-10T02:11:32.377Z,4.00
2018-06-10T02:12:32.322Z,4.00
2018-06-10T02:13:32.261Z,8.00
2018-06-10T02:14:32.204Z,8.00
2018-06-10T02:15:32.149Z,8.00
2018-06-10T02:16:32.093Z,8.00
2018-06-10T02:17:32.032Z,12.00
2018-06-10T02:18:31.976Z,12.00
2018-06-10T02:19:31.920Z,16.00
2018-06-10T02:20:31.864Z,16.00
2018-06-10T02:21:31.809Z,16.00
2018-06-10T02:22:31.752Z,20.00
2018-06-10T02:23:31.695Z,24.00
2018-06-10T02:24:31.643Z,24.00
2018-06-10T02:25:31.577Z,32.00
2018-06-10T02:26:31.520Z,32.00
2018-06-10T02:27:31.464Z,36.00
2018-06-10T02:28:31.410Z,40.00
2018-06-10T02:29:31.354Z,48.00
2018-06-10T02:30:31.295Z,52.00
2018-06-10T02:31:31.242Z,60.00
2018-06-10T02:32:31.179Z,64.00
2018-06-10T02:33:31.124Z,72.00
2018-06-10T02:34:31.077Z,80.00
2018-06-10T02:35:31.011Z,88.00
2018-06-10T02:36:30.954Z,92.00
2018-06-10T02:37:30.896Z,104.00
2018-06-10T02:38:30.840Z,116.00
2018-06-10T02:39:30.782Z,124.00
2018-06-10T02:40:30.723Z,136.00
2018-06-10T02:41:30.668Z,148.00
2018-06-10T02:42:30.611Z,160.00
2018-06-10T02:43:30.554Z,172.00
2018-06-10T02:44:30.500Z,188.00
2018-06-10T02:45:30.439Z,200.00
2018-06-10T02:46:30.381Z,216.00
2018-06-10T02:47:30.325Z,228.00
2018-06-10T02:48:30.274Z,248.00
2018-06-10T02:49:30.210Z,264.00
2018-06-10T02:50:30.156Z,284.00
2018-06-10T02:51:30.097Z,300.00
2018-06-10T02:52:30.039Z,320.00
2018-06-10T02:53:29.984Z,344.00
2018-06-10T02:54:29.924Z,360.00
2018-06-10T02:55:29.871Z,384.00
2018-06-10T02:56:29.811Z,404.00
2018-06-10T02:57:29.751Z,428.00
2018-06-10T02:58:29.695Z,444.00
2018-06-10T02:59:29.638Z,468.00
2018-06-10T03:00:29.590Z,492.00
2018-06-10T03:01:29.535Z,516.00
2018-06-10T03:02:29.471Z,540.00
2018-06-10T03:03:29.409Z,564.00
2018-06-10T03:04:29.353Z,592.00
2018-06-10T03:05:29.301Z,616.00
2018-06-10T03:06:29.249Z,644.00
2018-06-10T03:07:29.184Z,668.00
2018-06-10T03:08:29.126Z,696.00
2018-06-10T03:09:29.071Z,720.00
2018-06-10T03:10:29.008Z,748.00
2018-06-10T03:11:28.950Z,780.00
2018-06-10T03:12:28.892Z,804.00
2018-06-10T03:13:28.843Z,832.00
2018-06-10T03:14:28.779Z,864.00
2018-06-10T03:15:28.735Z,888.00
2018-06-10T03:16:28.669Z,920.00
2018-06-10T03:17:28.610Z,948.00
2018-06-10T03:18:28.558Z,976.00
2018-06-10T03:19:28.496Z,1004.00
2018-06-10T03:20:28.438Z,1032.00
2018-06-10T03:21:28.383Z,1056.00
2018-06-10T03:22:28.324Z,1084.00
2018-06-10T03:23:28.262Z,1116.00
2018-06-10T03:24:28.209Z,1140.00
2018-06-10T03:25:28.160Z,1164.00
2018-06-10T03:26:28.097Z,1196.00
2018-06-10T03:27:28.042Z,1220.00
2018-06-10T03:28:27.982Z,1248.00
2018-06-10T03:29:27.926Z,1280.00
2018-06-10T03:30:27.864Z,1308.00
2018-06-10T03:31:27.807Z,1340.00
2018-06-10T03:32:27.752Z,1368.00
2018-06-10T03:33:27.693Z,1396.00
2018-06-10T03:34:27.639Z,1424.00
2018-06-10T03:35:27.577Z,1452.00
2018-06-10T03:36:27.524Z,1480.00
2018-06-10T03:37:27.467Z,1504.00
2018-06-10T03:38:27.413Z,1532.00
2018-06-10T03:39:27.354Z,1568.00
2018-06-10T03:40:27.298Z,1600.00
2018-06-10T03:41:27.237Z,1632.00
2018-06-10T03:42:27.181Z,1660.00
2018-06-10T03:43:27.123Z,1696.00
2018-06-10T03:44:27.064Z,1736.00
2018-06-10T03:45:27.010Z,1772.00
2018-06-10T03:46:26.949Z,1804.00
2018-06-10T03:47:26.894Z,1836.00
2018-06-10T03:48:26.839Z,1872.00
2018-06-10T03:49:26.779Z,1904.00
2018-06-10T03:50:26.721Z,1944.00
2018-06-10T03:51:26.664Z,1976.00
2018-06-10T03:52:26.608Z,2016.00
2018-06-10T03:53:26.550Z,2056.00
2018-06-10T03:54:26.492Z,2096.00
2018-06-10T03:55:26.436Z,2136.00
2018-06-10T03:56:26.383Z,2164.00
2018-06-10T03:57:26.324Z,2192.00
2018-06-10T03:58:26.268Z,2228.00
2018-06-10T03:59:26.212Z,2256.00
2018-06-10T04:00:26.152Z,2284.00
2018-06-10T04:01:26.092Z,2304.00
2018-06-10T04:02:26.043Z,2332.00
2018-06-10T04:03:25.976Z,2356.00
2018-06-10T04:04:25.927Z,2376.00
2018-06-10T04:05:25.868Z,2400.00
2018-06-10T04:06:25.811Z,2420.00
2018-06-10T04:07:25.750Z,2448.00
2018-06-10T04:08:25.698Z,2484.00
2018-06-10T04:09:25.638Z,2516.00
2018-06-10T04:10:25.580Z,2548.00
2018-06-10T04:11:25.523Z,2580.00
2018-06-10T04:12:25.470Z,2620.00
2018-06-10T04:13:25.408Z,2668.00
2018-06-10T04:14:25.349Z,2720.00
2018-06-10T04:15:25.297Z,2764.00
2018-06-10T04:16:25.235Z,2808.00
2018-06-10T04:17:25.181Z,2844.00
2018-06-10T04:18:25.124Z,2884.00
2018-06-10T04:19:25.076Z,2924.00
2018-06-10T04:20:25.012Z,2976.00
2018-06-10T04:21:24.952Z,3012.00
2018-06-10T04:22:24.895Z,3056.00
2018-06-10T04:23:24.839Z,3088.00
2018-06-10T04:24:24.784Z,3100.00
2018-06-10T04:25:24.724Z,3108.00
2018-06-10T04:26:24.665Z,3120.00
2018-06-10T04:27:24.610Z,3148.00
2018-06-10T04:28:24.556Z,3180.00
2018-06-10T04:29:24.498Z,3216.00
2018-06-10T04:30:24.442Z,3256.00
2018-06-10T04:31:24.383Z,3284.00
2018-06-10T04:32:24.326Z,3380.00
2018-06-10T04:33:24.269Z,3432.00
2018-06-10T04:34:24.210Z,3484.00
2018-06-10T04:35:24.154Z,3544.00
2018-06-10T04:36:24.098Z,3592.00
2018-06-10T04:37:24.044Z,3636.00
2018-06-10T04:38:23.984Z,3696.00
2018-06-10T04:39:23.927Z,3748.00
2018-06-10T04:40:23.871Z,3808.00
2018-06-10T04:41:23.816Z,3872.00
2018-06-10T04:42:23.763Z,3936.00
2018-06-10T04:43:23.702Z,4004.00
2018-06-10T04:44:23.650Z,4032.00
2018-06-10T04:45:23.590Z,4052.00
2018-06-10T04:46:23.528Z,4060.00
2018-06-10T04:47:23.476Z,4116.00
2018-06-10T04:48:23.416Z,4172.00
2018-06-10T04:49:23.360Z,4224.00
2018-06-10T04:50:23.304Z,4264.00
2018-06-10T04:51:23.248Z,4232.00
2018-06-10T04:52:23.193Z,3804.00
2018-06-10T04:53:23.137Z,3716.00
2018-06-10T04:54:23.074Z,3728.00
2018-06-10T04:55:23.024Z,3712.00
2018-06-10T04:56:22.964Z,3708.00
2018-06-10T04:57:22.906Z,3720.00
2018-06-10T04:58:22.849Z,3700.00
2018-06-10T04:59:22.794Z,3664.00
2018-06-10T05:00:22.739Z,3692.00
2018-06-10T05:01:22.683Z,3748.00
2018-06-10T05:02:22.623Z,3696.00
2018-06-10T05:03:22.569Z,3736.00
2018-06-10T05:04:22.510Z,3804.00
2018-06-10T05:05:22.455Z,3912.00
2018-06-10T05:06:22.397Z,4044.00
2018-06-10T05:07:22.339Z,3968.00
2018-06-10T05:08:22.284Z,4000.00
2018-06-10T05:09:22.230Z,4016.00
2018-06-10T05:10:22.173Z,4008.00
2018-06-10T05:11:22.115Z,3992.00
2018-06-10T05:12:22.057Z,4004.00
2018-06-10T05:13:22.006Z,3996.00
2018-06-10T05:14:21.950Z,4036.00
2018-06-10T05:15:21.890Z,4124.00
2018-06-10T05:16:21.834Z,5592.00
2018-06-10T05:17:21.775Z,4356.00
2018-06-10T05:18:21.719Z,4984.00
2018-06-10T05:19:21.664Z,4784.00
2018-06-10T05:20:21.605Z,4656.00
2018-06-10T05:21:21.553Z,4648.00
2018-06-10T05:22:21.495Z,4856.00
2018-06-10T05:23:21.437Z,5340.00
2018-06-10T05:24:21.383Z,5744.00
2018-06-10T05:25:21.322Z,5756.00
2018-06-10T05:26:21.268Z,5364.00
2018-06-10T05:27:21.213Z,6072.00
2018-06-10T05:28:21.157Z,5624.00
2018-06-10T05:29:21.099Z,5080.00
2018-06-10T05:30:21.042Z,5172.00
2018-06-10T05:31:20.987Z,5284.00
2018-06-10T05:32:20.930Z,5520.00
2018-06-10T05:33:20.876Z,6056.00
2018-06-10T05:34:20.820Z,5976.00
2018-06-10T05:35:20.766Z,6324.00
2018-06-10T05:36:20.708Z,7456.00
2018-06-10T05:37:20.649Z,7564.00
2018-06-10T05:38:20.593Z,8148.00
2018-06-10T05:39:20.538Z,8336.00
2018-06-10T05:40:20.483Z,8564.00
2018-06-10T05:41:20.429Z,8824.00
2018-06-10T05:42:20.372Z,9104.00
2018-06-10T05:43:20.314Z,9380.00
2018-06-10T05:44:20.257Z,9652.00
2018-06-10T05:45:20.205Z,9712.00
2018-06-10T05:46:20.152Z,8844.00
2018-06-10T05:47:20.095Z,8944.00
2018-06-10T05:48:20.040Z,9576.00
2018-06-10T05:49:19.981Z,9044.00
2018-06-10T05:50:19.923Z,9212.00
2018-06-10T05:51:19.899Z,9692.00
2018-06-10T05:52:19.814Z,9908.00
2018-06-10T05:53:19.763Z,10704.00
2018-06-10T05:54:19.706Z,11060.00
2018-06-10T05:55:19.650Z,11068.00
2018-06-10T05:56:19.600Z,10940.00
2018-06-10T05:57:19.541Z,10848.00
2018-06-10T05:58:19.483Z,10752.00
2018-06-10T05:59:19.433Z,10716.00
2018-06-10T06:00:19.374Z,10748.00
2018-06-10T06:01:19.325Z,10756.00
2018-06-10T06:02:19.263Z,10788.00
2018-06-10T06:03:19.205Z,10784.00
2018-06-10T06:04:19.158Z,10696.00
2018-06-10T06:05:19.098Z,10348.00
2018-06-10T06:06:19.049Z,9924.00
2018-06-10T06:07:18.992Z,9656.00
2018-06-10T06:08:18.937Z,9940.00
2018-06-10T06:09:18.880Z,9656.00
2018-06-10T06:10:18.824Z,9660.00
2018-06-10T06:11:18.775Z,9812.00
2018-06-10T06:12:18.721Z,9740.00
2018-06-10T06:13:18.707Z,9732.00
2018-06-10T06:14:18.615Z,9864.00
2018-06-10T06:15:18.552Z,9576.00
2018-06-10T06:16:18.500Z,9672.00
2018-06-10T06:17:18.448Z,9820.00
2018-06-10T06:18:18.395Z,9812.00
2018-06-10T06:19:18.341Z,10028.00
2018-06-10T06:20:18.287Z,10336.00
2018-06-10T06:21:18.231Z,10724.00
2018-06-10T06:22:18.177Z,10296.00
2018-06-10T06:23:18.123Z,10364.00
2018-06-10T06:24:18.080Z,10140.00
2018-06-10T06:25:18.019Z,9768.00
2018-06-10T06:26:17.961Z,10416.00
2018-06-10T06:27:17.912Z,10516.00
2018-06-10T06:28:17.853Z,10328.00
2018-06-10T06:29:17.797Z,10240.00
2018-06-10T06:30:17.749Z,10168.00
2018-06-10T06:31:17.688Z,9764.00
2018-06-10T06:32:17.638Z,9408.00
2018-06-10T06:33:17.627Z,9572.00
2018-06-10T06:34:17.531Z,9764.00
2018-06-10T06:35:17.475Z,9732.00
2018-06-10T06:36:17.420Z,9460.00
2018-06-10T06:37:17.368Z,9164.00
2018-06-10T06:38:17.312Z,9228.00
2018-06-10T06:39:17.264Z,8612.00
2018-06-10T06:40:17.206Z,8556.00
2018-06-10T06:41:17.150Z,7884.00
2018-06-10T06:42:17.101Z,7972.00
2018-06-10T06:43:17.045Z,7320.00
2018-06-10T06:44:16.990Z,7552.00
2018-06-10T06:45:16.940Z,7908.00
2018-06-10T06:46:16.888Z,7232.00
2018-06-10T06:47:16.832Z,7524.00
2018-06-10T06:48:16.776Z,7528.00
2018-06-10T06:49:16.722Z,7612.00
2018-06-10T06:50:16.671Z,7788.00
2018-06-10T06:51:16.617Z,7880.00
2018-06-10T06:52:16.566Z,7824.00
2018-06-10T06:53:16.510Z,7836.00
2018-06-10T06:54:16.457Z,7632.00
2018-06-10T06:55:16.401Z,7568.00
2018-06-10T06:56:16.347Z,7576.00
2018-06-10T06:57:16.297Z,7556.00
2018-06-10T06:58:16.240Z,7260.00
2018-06-10T06:59:16.187Z,7244.00
2018-06-10T07:00:16.133Z,7360.00
2018-06-10T07:01:16.083Z,7620.00
2018-06-10T07:02:16.029Z,7572.00
2018-06-10T07:03:15.973Z,7524.00
2018-06-10T07:04:15.943Z,7504.00
2018-06-10T07:05:15.860Z,7492.00
2018-06-10T07:06:15.812Z,7556.00
2018-06-10T07:07:15.757Z,7544.00
2018-06-10T07:08:15.703Z,7648.00
2018-06-10T07:09:15.657Z,7732.00
2018-06-10T07:10:15.593Z,7796.00
2018-06-10T07:11:15.549Z,7820.00
2018-06-10T07:12:15.491Z,7924.00
2018-06-10T07:13:15.436Z,8056.00
2018-06-10T07:14:15.383Z,8160.00
2018-06-10T07:15:15.328Z,7980.00
2018-06-10T07:16:15.276Z,7964.00
2018-06-10T07:17:15.225Z,7828.00
2018-06-10T07:18:15.173Z,8140.00
2018-06-10T07:19:15.138Z,8120.00
2018-06-10T07:20:15.062Z,8500.00
2018-06-10T07:21:15.012Z,8892.00
2018-06-10T07:22:14.954Z,9204.00
2018-06-10T07:23:14.904Z,9364.00
2018-06-10T07:24:14.853Z,9764.00
2018-06-10T07:25:14.795Z,10108.00
2018-06-10T07:26:14.741Z,10480.00
2018-06-10T07:27:14.685Z,10648.00
2018-06-10T07:28:14.635Z,10632.00
2018-06-10T07:29:14.589Z,10748.00
2018-06-10T07:30:14.529Z,10548.00
2018-06-10T07:31:14.488Z,10428.00
2018-06-10T07:32:14.454Z,10420.00
2018-06-10T07:33:14.371Z,10476.00
2018-06-10T07:34:14.316Z,10548.00
2018-06-10T07:35:14.264Z,10764.00
2018-06-10T07:36:14.208Z,10848.00
2018-06-10T07:37:14.163Z,11244.00
2018-06-10T07:38:14.143Z,11172.00
2018-06-10T07:39:14.050Z,11200.00
2018-06-10T07:40:14.007Z,11236.00
2018-06-10T07:41:13.950Z,11192.00
2018-06-10T07:42:13.897Z,11588.00
2018-06-10T07:43:13.847Z,11288.00
2018-06-10T07:44:13.789Z,11804.00
2018-06-10T07:45:13.743Z,11352.00
2018-06-10T07:46:13.682Z,11564.00
2018-06-10T07:47:13.627Z,11352.00
2018-06-10T07:48:13.590Z,10916.00
2018-06-10T07:49:13.527Z,11068.00
2018-06-10T07:50:13.471Z,10636.00
2018-06-10T07:51:13.420Z,11292.00
2018-06-10T07:52:13.366Z,11164.00
2018-06-10T07:53:13.316Z,11684.00
2018-06-10T07:54:13.262Z,11416.00
2018-06-10T07:55:13.210Z,11724.00
2018-06-10T07:56:13.155Z,11852.00
2018-06-10T07:57:13.103Z,11784.00
2018-06-10T07:58:13.049Z,11716.00
2018-06-10T07:59:12.997Z,11228.00
2018-06-10T08:00:12.946Z,11096.00
2018-06-10T08:01:12.900Z,10868.00
2018-06-10T08:02:12.865Z,10736.00
2018-06-10T08:03:12.790Z,11152.00
2018-06-10T08:04:12.743Z,10712.00
2018-06-10T08:05:12.691Z,11056.00
2018-06-10T08:06:12.631Z,11104.00
2018-06-10T08:07:12.584Z,10844.00
2018-06-10T08:08:12.528Z,10736.00
2018-06-10T08:09:12.478Z,10416.00
2018-06-10T08:10:12.422Z,10196.00
2018-06-10T08:11:12.371Z,10180.00
2018-06-10T08:12:12.316Z,10124.00
2018-06-10T08:13:12.270Z,9756.00
2018-06-10T08:14:12.212Z,9644.00
2018-06-10T08:15:12.164Z,9916.00
2018-06-10T08:16:12.115Z,9608.00
2018-06-10T08:17:12.058Z,9880.00
2018-06-10T08:18:12.010Z,9776.00
2018-06-10T08:19:11.958Z,9728.00
2018-06-10T08:20:11.903Z,9420.00
2018-06-10T08:21:11.855Z,9268.00
2018-06-10T08:22:11.808Z,8852.00
2018-06-10T08:23:11.746Z,8868.00
2018-06-10T08:24:11.692Z,8900.00
2018-06-10T08:25:11.645Z,9172.00
2018-06-10T08:26:11.590Z,9784.00
2018-06-10T08:27:11.541Z,10264.00
2018-06-10T08:28:11.494Z,10932.00
2018-06-10T08:29:11.433Z,11484.00
2018-06-10T08:30:11.379Z,11792.00
2018-06-10T08:31:11.327Z,11740.00
2018-06-10T08:32:11.275Z,12148.00
2018-06-10T08:33:11.235Z,12608.00
2018-06-10T08:34:11.174Z,12988.00
2018-06-10T08:35:11.119Z,13368.00
2018-06-10T08:36:11.067Z,13688.00
2018-06-10T08:37:11.020Z,13812.00
2018-06-10T08:38:10.962Z,13836.00
2018-06-10T08:39:10.911Z,13720.00
2018-06-10T08:40:10.870Z,13528.00
2018-06-10T08:41:10.811Z,13460.00
2018-06-10T08:42:10.754Z,13532.00
2018-06-10T08:43:10.705Z,13636.00
2018-06-10T08:44:10.707Z,14160.00
2018-06-10T08:45:10.616Z,14624.00
2018-06-10T08:46:10.551Z,14808.00
2018-06-10T08:47:10.495Z,14824.00
2018-06-10T08:48:10.442Z,14600.00
2018-06-10T08:49:10.389Z,14948.00
2018-06-10T08:50:10.337Z,15020.00
2018-06-10T08:51:10.284Z,15364.00
2018-06-10T08:52:10.236Z,15364.00
2018-06-10T08:53:10.221Z,15308.00
2018-06-10T08:54:10.129Z,14784.00
2018-06-10T08:55:10.074Z,14196.00
2018-06-10T08:56:10.024Z,13456.00
2018-06-10T08:57:09.984Z,12984.00
2018-06-10T08:58:09.920Z,12792.00
2018-06-10T08:59:09.873Z,12392.00
2018-06-10T09:00:09.818Z,12244.00
2018-06-10T09:01:09.764Z,12640.00
2018-06-10T09:02:09.715Z,12584.00
2018-06-10T09:03:09.664Z,12572.00
2018-06-10T09:04:09.611Z,12464.00
2018-06-10T09:05:09.556Z,12388.00
2018-06-10T09:06:09.501Z,12500.00
2018-06-10T09:07:09.448Z,12884.00
2018-06-10T09:08:09.398Z,13000.00
2018-06-10T09:09:09.349Z,13176.00
2018-06-10T09:10:09.297Z,13928.00
2018-06-10T09:11:09.243Z,14756.00
2018-06-10T09:12:09.193Z,15580.00
2018-06-10T09:13:09.140Z,16028.00
2018-06-10T09:14:09.098Z,16008.00
2018-06-10T09:15:09.036Z,15872.00
2018-06-10T09:16:08.987Z,15340.00
2018-06-10T09:17:08.926Z,15444.00
2018-06-10T09:18:08.883Z,15996.00
2018-06-10T09:19:08.825Z,16476.00
2018-06-10T09:20:08.776Z,17204.00
2018-06-10T09:21:08.723Z,17888.00
2018-06-10T09:22:08.672Z,17696.00
2018-06-10T09:23:08.623Z,17428.00
2018-06-10T09:24:08.569Z,17436.00
2018-06-10T09:25:08.522Z,17464.00
2018-06-10T09:26:08.462Z,17276.00
2018-06-10T09:27:08.415Z,16868.00
2018-06-10T09:28:08.361Z,16680.00
2018-06-10T09:29:08.309Z,16664.00
2018-06-10T09:30:08.257Z,16908.00
2018-06-10T09:31:08.206Z,17356.00
2018-06-10T09:32:08.156Z,17984.00
2018-06-10T09:33:08.103Z,18944.00
2018-06-10T09:34:08.052Z,19456.00
2018-06-10T09:35:08.000Z,19584.00
2018-06-10T09:36:07.952Z,20128.00
2018-06-10T09:37:07.895Z,21536.00
2018-06-10T09:38:07.845Z,22848.00
2018-06-10T09:39:07.791Z,24224.00
2018-06-10T09:40:07.737Z,25152.00
2018-06-10T09:41:07.692Z,25184.00
2018-06-10T09:42:07.658Z,24896.00
2018-06-10T09:43:07.587Z,24288.00
2018-06-10T09:44:07.535Z,23776.00
2018-06-10T09:45:07.487Z,23680.00
2018-06-10T09:46:07.434Z,23552.00
2018-06-10T09:47:07.384Z,23648.00
2018-06-10T09:48:07.337Z,23744.00
2018-06-10T09:49:07.280Z,23296.00
2018-06-10T09:50:07.229Z,22976.00
2018-06-10T09:51:07.179Z,22944.00
2018-06-10T09:52:07.127Z,22784.00
2018-06-10T09:53:07.084Z,22528.00
2018-06-10T09:54:07.027Z,22176.00
2018-06-10T09:55:07.026Z,22112.00
2018-06-10T09:56:06.927Z,22400.00
2018-06-10T09:57:06.877Z,23040.00
2018-06-10T09:58:06.824Z,23808.00
2018-06-10T09:59:06.776Z,24448.00
2018-06-10T10:00:06.722Z,24768.00
2018-06-10T10:01:06.673Z,24352.00
2018-06-10T10:02:06.622Z,23808.00
2018-06-10T10:03:06.571Z,23616.00
2018-06-10T10:04:06.519Z,23648.00
2018-06-10T10:05:06.468Z,23840.00
2018-06-10T10:06:06.420Z,24192.00
2018-06-10T10:07:06.371Z,24768.00
2018-06-10T10:08:06.319Z,24800.00
2018-06-10T10:09:06.264Z,24416.00
2018-06-10T10:10:06.215Z,24480.00
2018-06-10T10:11:06.167Z,25088.00
2018-06-10T10:12:06.112Z,25376.00
2018-06-10T10:13:06.067Z,26304.00
2018-06-10T10:14:06.020Z,26752.00
2018-06-10T10:15:05.963Z,26592.00
2018-06-10T10:16:05.914Z,26496.00
2018-06-10T10:17:05.866Z,26624.00
2018-06-10T10:18:05.815Z,27456.00
2018-06-10T10:19:05.762Z,28192.00
2018-06-10T10:20:05.720Z,28288.00
2018-06-10T10:21:05.666Z,28032.00
2018-06-10T10:22:05.614Z,28576.00
2018-06-10T10:23:05.563Z,28064.00
2018-06-10T10:24:05.525Z,27616.00
2018-06-10T10:25:05.502Z,26880.00
2018-06-10T10:26:05.413Z,26240.00
2018-06-10T10:27:05.364Z,26432.00
2018-06-10T10:28:05.316Z,26656.00
2018-06-10T10:29:05.267Z,26720.00
2018-06-10T10:30:05.218Z,27008.00
2018-06-10T10:31:05.171Z,27840.00
2018-06-10T10:32:05.131Z,27680.00
2018-06-10T10:33:05.072Z,26304.00
2018-06-10T10:34:05.016Z,25632.00
2018-06-10T10:35:04.972Z,26208.00
2018-06-10T10:36:04.924Z,26848.00
2018-06-10T10:37:04.876Z,26656.00
2018-06-10T10:38:04.826Z,25952.00
2018-06-10T10:39:04.773Z,25568.00
2018-06-10T10:40:04.727Z,25440.00
2018-06-10T10:41:04.678Z,25440.00
2018-06-10T10:42:04.626Z,25888.00
2018-06-10T10:43:04.601Z,26176.00
2018-06-10T10:44:04.525Z,26816.00
2018-06-10T10:45:04.479Z,26816.00
2018-06-10T10:46:04.426Z,27392.00
2018-06-10T10:47:04.377Z,27296.00
2018-06-10T10:48:04.323Z,25888.00
2018-06-10T10:49:26.875Z,25184.00
2018-06-10T10:53:09.001Z,26752.00
2018-06-10T10:54:08.906Z,27136.00
2018-06-10T10:56:03.298Z,24480.00
2018-06-10T10:57:03.148Z,21344.00
2018-06-10T10:58:57.493Z,17516.00
2018-06-10T10:59:57.392Z,17584.00
2018-06-10T11:01:52.771Z,20032.00
2018-06-10T11:02:52.629Z,20704.00
2018-06-10T11:04:46.952Z,21920.00
2018-06-10T11:05:46.869Z,22304.00
2018-06-10T11:07:41.733Z,22784.00
2018-06-10T11:08:41.639Z,21664.00
2018-06-10T11:10:37.195Z,20160.00
2018-06-10T11:11:35.871Z,20288.00
2018-06-10T11:13:29.216Z,21216.00
2018-06-10T11:14:29.133Z,22656.00
2018-06-10T11:16:22.470Z,19008.00
2018-06-10T11:17:22.377Z,17408.00
2018-06-10T11:19:16.696Z,13292.00
2018-06-10T11:20:16.618Z,11836.00
2018-06-10T11:22:10.934Z,10108.00
2018-06-10T11:23:10.857Z,9516.00
2018-06-10T11:25:05.177Z,9052.00
2018-06-10T11:26:05.099Z,8664.00
2018-06-10T11:27:05.115Z,8160.00
2018-06-10T11:28:04.999Z,7716.00
2018-06-10T11:29:04.965Z,7384.00
2018-06-10T11:30:04.898Z,6912.00
2018-06-10T11:31:04.847Z,6648.00
2018-06-10T11:32:04.793Z,6368.00
2018-06-10T11:33:04.739Z,6176.00
2018-06-10T11:34:04.693Z,5916.00
2018-06-10T11:35:04.641Z,5548.00
2018-06-10T11:36:04.589Z,5140.00
2018-06-10T11:37:04.535Z,4744.00
2018-06-10T11:38:04.485Z,4380.00
2018-06-10T11:39:04.433Z,4100.00
2018-06-10T11:40:04.381Z,3960.00
2018-06-10T11:41:04.340Z,4104.00
2018-06-10T11:42:04.285Z,4620.00
2018-06-10T11:43:04.227Z,5452.00
2018-06-10T11:44:04.174Z,6428.00
2018-06-10T11:45:04.130Z,7236.00
2018-06-10T11:46:04.072Z,7824.00
2018-06-10T11:47:04.016Z,8232.00
2018-06-10T11:48:03.969Z,8412.00
2018-06-10T11:49:03.918Z,8300.00
2018-06-10T11:50:03.867Z,7824.00
2018-06-10T11:51:03.812Z,7300.00
2018-06-10T11:52:03.781Z,6684.00
2018-06-10T11:53:03.709Z,6120.00
2018-06-10T11:54:03.656Z,5848.00
2018-06-10T11:55:03.605Z,5904.00
2018-06-10T11:56:03.552Z,6260.00
2018-06-10T11:57:03.504Z,6596.00
2018-06-10T11:58:03.508Z,6660.00
2018-06-10T11:59:03.392Z,6516.00
2018-06-10T12:00:03.343Z,6212.00
2018-06-10T12:01:03.290Z,5968.00
2018-06-10T12:02:03.239Z,5756.00
2018-06-10T12:03:03.185Z,5552.00
2018-06-10T12:04:03.136Z,5416.00
2018-06-10T12:05:03.087Z,5292.00
2018-06-10T12:06:03.033Z,5204.00
2018-06-10T12:07:02.975Z,5192.00
2018-06-10T12:08:02.924Z,5240.00
2018-06-10T12:09:02.867Z,5344.00
2018-06-10T12:10:02.809Z,5544.00
2018-06-10T12:11:02.758Z,5768.00
2018-06-10T12:12:02.711Z,6036.00
2018-06-10T12:13:02.653Z,6544.00
2018-06-10T12:14:02.602Z,6948.00
2018-06-10T12:15:02.548Z,7376.00
2018-06-10T12:16:02.495Z,7768.00
2018-06-10T12:17:02.438Z,8208.00
2018-06-10T12:18:02.386Z,8720.00
2018-06-10T12:19:02.333Z,9228.00
2018-06-10T12:20:02.283Z,9732.00
2018-06-10T12:21:02.225Z,10364.00
2018-06-10T12:22:02.179Z,11104.00
2018-06-10T12:23:02.116Z,11992.00
2018-06-10T12:24:02.065Z,12992.00
2018-06-10T12:25:02.012Z,14044.00
2018-06-10T12:26:01.957Z,15244.00